Time;durP1;ratioP1;P1;durP2;ratioP2;P2;SDS_P1;SDS_P2;PMS_P1;PMS_P2;Temp;Humidity;BMP_temperature;BMP_pressure;BME280_temperature;BME280_humidity;BME280_pressure;Samples;Min_cycle;Max_cycle;Signal;HPM_P1;HPM_P2
2022/03/06 00:00:52;;;;;;;8.82;4.18;;;;;;;;;;5053305;28;20045;-69
2022/03/06 00:03:18;;;;;;;9.20;3.90;;;;;;;;;;5053013;28;20521;-71
2022/03/06 00:05:44;;;;;;;9.70;3.97;;;;;;;;;;5053012;28;20119;-70
2022/03/06 00:08:10;;;;;;;11.27;4.55;;;;;;;;;;5053257;28;20025;-69
2022/03/06 00:10:36;;;;;;;10.32;4.55;;;;;;;;;;5052955;28;20017;-69
2022/03/06 00:13:02;;;;;;;10.73;4.72;;;;;;;;;;5053075;28;20107;-69
2022/03/06 00:15:28;;;;;;;13.43;4.88;;;;;;;;;;5052939;28;20017;-67
2022/03/06 00:17:55;;;;;;;10.50;5.28;;;;;;;;;;5053159;28;20100;-69
2022/03/06 00:20:21;;;;;;;15.15;4.75;;;;;;;;;;5052881;28;20021;-68
2022/03/06 00:22:47;;;;;;;10.75;4.47;;;;;;;;;;5052864;28;20029;-70
2022/03/06 00:25:13;;;;;;;11.40;4.07;;;;;;;;;;5052816;28;20051;-71
2022/03/06 00:27:39;;;;;;;8.45;4.72;;;;;;;;;;5053355;28;20029;-68
2022/03/06 00:30:05;;;;;;;10.57;4.53;;;;;;;;;;5053073;28;20052;-67
2022/03/06 00:32:31;;;;;;;8.18;4.05;;;;;;;;;;5053043;28;20021;-69
2022/03/06 00:34:57;;;;;;;11.57;4.90;;;;;;;;;;5053227;28;20021;-68
2022/03/06 00:37:23;;;;;;;10.43;4.60;;;;;;;;;;5055019;28;20021;-70
2022/03/06 00:39:50;;;;;;;13.10;4.25;;;;;;;;;;5056589;28;20104;-68
2022/03/06 00:42:15;;;;;;;8.75;4.25;;;;;;;;;;5056496;28;20025;-67
2022/03/06 00:44:41;;;;;;;8.82;4.10;;;;;;;;;;5056472;28;20032;-70
2022/03/06 00:47:08;;;;;;;10.70;4.75;;;;;;;;;;5056449;28;20469;-68
2022/03/06 00:49:34;;;;;;;10.27;4.43;;;;;;;;;;5056973;28;20079;-69
2022/03/06 00:52:00;;;;;;;11.45;5.72;;;;;;;;;;5056609;28;20503;-70
2022/03/06 00:54:26;;;;;;;11.77;4.72;;;;;;;;;;5056174;28;20047;-69
2022/03/06 00:56:52;;;;;;;12.88;4.32;;;;;;;;;;5056258;28;20025;-68
2022/03/06 00:59:18;;;;;;;10.95;4.32;;;;;;;;;;5056750;28;20023;-68
2022/03/06 01:01:44;;;;;;;14.18;4.88;;;;;;;;;;5056424;28;20025;-68
2022/03/06 01:04:10;;;;;;;11.77;4.88;;;;;;;;;;5055936;28;20032;-68
2022/03/06 01:06:37;;;;;;;9.35;4.07;;;;;;;;;;5056661;28;20091;-68
2022/03/06 01:09:04;;;;;;;12.60;4.45;;;;;;;;;;5056025;28;20078;-68
2022/03/06 01:11:30;;;;;;;10.38;4.40;;;;;;;;;;5055990;28;20029;-70
2022/03/06 01:13:56;;;;;;;8.75;4.65;;;;;;;;;;5056165;28;20107;-69
2022/03/06 01:16:22;;;;;;;10.18;4.72;;;;;;;;;;5056389;28;20025;-67
2022/03/06 01:18:48;;;;;;;9.32;4.32;;;;;;;;;;5056136;28;20017;-68
2022/03/06 01:21:15;;;;;;;11.02;4.78;;;;;;;;;;5056085;28;20541;-68
2022/03/06 01:23:41;;;;;;;9.27;4.63;;;;;;;;;;5055757;28;20032;-67
2022/03/06 01:26:07;;;;;;;9.48;4.55;;;;;;;;;;5055679;28;20025;-69
2022/03/06 01:28:33;;;;;;;11.48;4.88;;;;;;;;;;5056195;28;20031;-68
2022/03/06 01:30:59;;;;;;;18.75;5.75;;;;;;;;;;5055621;28;20033;-69
2022/03/06 01:33:25;;;;;;;12.95;4.90;;;;;;;;;;5055440;28;20021;-68
2022/03/06 01:35:51;;;;;;;12.43;4.80;;;;;;;;;;5055467;28;20033;-68
2022/03/06 01:38:17;;;;;;;13.57;5.07;;;;;;;;;;5055483;28;20433;-69
2022/03/06 01:40:43;;;;;;;10.50;5.05;;;;;;;;;;5055695;28;20020;-68
2022/03/06 01:43:09;;;;;;;10.23;4.75;;;;;;;;;;5055349;28;20017;-70
2022/03/06 01:45:36;;;;;;;11.88;5.35;;;;;;;;;;5037472;28;20080;-70
2022/03/06 01:48:03;;;;;;;16.38;5.85;;;;;;;;;;5055301;28;20029;-68
2022/03/06 01:50:33;;;;;;;11.68;4.97;;;;;;;;;;5055288;28;20025;-68
2022/03/06 01:53:00;;;;;;;11.65;4.97;;;;;;;;;;5055524;28;20017;-67
2022/03/06 01:55:26;;;;;;;13.85;5.85;;;;;;;;;;5054999;28;20501;-68
2022/03/06 01:57:54;;;;;;;12.55;4.90;;;;;;;;;;5055160;28;20092;-69
2022/03/06 02:00:21;;;;;;;9.15;4.65;;;;;;;;;;5037182;28;20095;-68
2022/03/06 02:02:47;;;;;;;11.10;4.60;;;;;;;;;;5037118;28;20393;-68
2022/03/06 02:05:13;;;;;;;9.52;3.88;;;;;;;;;;5054624;28;20053;-68
2022/03/06 02:07:39;;;;;;;8.57;4.05;;;;;;;;;;5054930;28;20025;-68
2022/03/06 02:10:06;;;;;;;10.15;4.28;;;;;;;;;;5054884;28;20032;-69
2022/03/06 02:12:33;;;;;;;12.80;4.65;;;;;;;;;;5054874;28;20397;-69
2022/03/06 02:15:00;;;;;;;13.98;5.10;;;;;;;;;;5054720;28;20029;-69
2022/03/06 02:17:26;;;;;;;12.75;5.10;;;;;;;;;;5054751;28;20524;-68
2022/03/06 02:19:52;;;;;;;13.43;4.95;;;;;;;;;;5054653;28;20017;-67
2022/03/06 02:22:19;;;;;;;12.02;5.22;;;;;;;;;;5054597;28;20554;-68
2022/03/06 02:24:45;;;;;;;14.13;3.95;;;;;;;;;;5054530;28;20056;-68
2022/03/06 02:27:11;;;;;;;13.10;5.05;;;;;;;;;;5054538;28;20033;-68
2022/03/06 02:29:41;;;;;;;11.52;4.72;;;;;;;;;;5054785;28;20431;-69
2022/03/06 02:32:10;;;;;;;9.35;4.68;;;;;;;;;;5054481;28;20534;-69
2022/03/06 02:34:40;;;;;;;16.73;5.95;;;;;;;;;;5054341;28;20035;-69
2022/03/06 02:37:06;;;;;;;12.98;5.30;;;;;;;;;;5054377;28;20021;-67
2022/03/06 02:39:32;;;;;;;15.00;5.07;;;;;;;;;;5054572;28;20031;-69
2022/03/06 02:41:58;;;;;;;9.73;4.93;;;;;;;;;;5054535;28;20021;-67
2022/03/06 02:44:25;;;;;;;15.40;4.82;;;;;;;;;;5054194;28;20029;-69
2022/03/06 02:46:51;;;;;;;13.70;5.15;;;;;;;;;;5054165;28;20051;-69
2022/03/06 02:49:20;;;;;;;12.85;5.10;;;;;;;;;;5054127;28;20028;-68
2022/03/06 02:51:46;;;;;;;15.13;5.03;;;;;;;;;;5054358;28;20025;-68
2022/03/06 02:54:13;;;;;;;15.25;5.75;;;;;;;;;;5054125;28;20473;-68
2022/03/06 02:56:40;;;;;;;12.52;5.22;;;;;;;;;;5054019;28;20021;-68
2022/03/06 02:59:06;;;;;;;11.85;5.85;;;;;;;;;;5053950;28;20021;-68
2022/03/06 03:01:37;;;;;;;11.52;5.90;;;;;;;;;;5054049;28;20056;-69
2022/03/06 03:04:04;;;;;;;13.45;5.78;;;;;;;;;;5035649;28;20029;-68
2022/03/06 03:06:30;;;;;;;11.60;5.38;;;;;;;;;;5053804;28;20061;-68
2022/03/06 03:08:57;;;;;;;11.35;5.32;;;;;;;;;;5054060;28;20079;-69
2022/03/06 03:11:23;;;;;;;11.73;5.53;;;;;;;;;;5053705;28;20017;-69
2022/03/06 03:13:49;;;;;;;13.82;5.28;;;;;;;;;;5035721;28;20406;-69
2022/03/06 03:16:15;;;;;;;13.00;4.70;;;;;;;;;;5053642;28;20021;-68
2022/03/06 03:18:41;;;;;;;10.43;4.95;;;;;;;;;;5053878;28;20036;-69
2022/03/06 03:21:07;;;;;;;11.50;5.35;;;;;;;;;;5053546;28;20473;-70
2022/03/06 03:23:33;;;;;;;9.45;4.40;;;;;;;;;;5053521;28;20071;-68
2022/03/06 03:25:59;;;;;;;11.43;5.22;;;;;;;;;;5054023;28;20048;-69
2022/03/06 03:28:25;;;;;;;11.40;5.15;;;;;;;;;;5053465;28;20029;-69
2022/03/06 03:30:51;;;;;;;13.50;5.47;;;;;;;;;;5053983;28;20526;-68
2022/03/06 03:33:17;;;;;;;12.50;4.80;;;;;;;;;;5053303;28;20083;-68
2022/03/06 03:35:43;;;;;;;13.05;5.55;;;;;;;;;;5053584;28;20070;-67
2022/03/06 03:38:09;;;;;;;11.82;4.40;;;;;;;;;;5053303;28;20458;-67
2022/03/06 03:40:35;;;;;;;10.95;5.03;;;;;;;;;;5053564;28;20017;-70
2022/03/06 03:43:01;;;;;;;10.40;4.30;;;;;;;;;;5053230;28;20390;-68
2022/03/06 03:45:27;;;;;;;14.40;5.57;;;;;;;;;;5053241;28;20028;-67
2022/03/06 03:47:53;;;;;;;10.70;5.22;;;;;;;;;;5053765;28;20033;-68
2022/03/06 03:50:19;;;;;;;13.45;5.25;;;;;;;;;;5053450;28;20032;-68
2022/03/06 03:52:45;;;;;;;14.32;5.10;;;;;;;;;;5053450;28;20394;-68
2022/03/06 03:55:11;;;;;;;13.88;5.78;;;;;;;;;;5052946;28;20021;-68
2022/03/06 03:57:37;;;;;;;13.60;5.63;;;;;;;;;;5053382;28;20025;-67
2022/03/06 04:00:04;;;;;;;12.75;5.63;;;;;;;;;;5053312;28;20461;-70
2022/03/06 04:02:32;;;;;;;14.18;6.80;;;;;;;;;;5053318;28;20468;-68
2022/03/06 04:04:58;;;;;;;15.65;7.00;;;;;;;;;;5052834;28;20045;-68
2022/03/06 04:07:24;;;;;;;12.35;6.90;;;;;;;;;;5052977;28;20543;-70
2022/03/06 04:09:50;;;;;;;15.55;7.15;;;;;;;;;;5052979;28;20036;-69
2022/03/06 04:12:16;;;;;;;15.98;8.52;;;;;;;;;;5054643;28;20474;-69
2022/03/06 04:14:42;;;;;;;19.30;9.40;;;;;;;;;;5057513;28;20025;-67
2022/03/06 04:17:08;;;;;;;20.45;9.82;;;;;;;;;;5057020;28;20032;-68
2022/03/06 04:19:34;;;;;;;21.88;9.52;;;;;;;;;;5057004;28;20021;-69
2022/03/06 04:22:00;;;;;;;18.42;9.50;;;;;;;;;;5056882;28;20500;-69
2022/03/06 04:24:26;;;;;;;22.30;11.02;;;;;;;;;;5057178;28;20021;-68
2022/03/06 04:26:52;;;;;;;20.23;10.60;;;;;;;;;;5056845;28;20040;-69
2022/03/06 04:29:19;;;;;;;22.35;11.63;;;;;;;;;;5056783;28;20021;-69
2022/03/06 04:31:45;;;;;;;22.90;12.07;;;;;;;;;;5057014;28;20025;-69
2022/03/06 04:34:11;;;;;;;23.90;12.07;;;;;;;;;;5056863;28;20099;-68
2022/03/06 04:36:37;;;;;;;23.48;12.20;;;;;;;;;;5056921;28;20021;-70
2022/03/06 04:39:03;;;;;;;24.73;12.55;;;;;;;;;;5056859;28;20021;-68
2022/03/06 04:41:30;;;;;;;26.38;14.43;;;;;;;;;;5056834;28;20025;-68
2022/03/06 04:43:56;;;;;;;24.17;13.35;;;;;;;;;;5056789;28;20024;-68
2022/03/06 04:46:22;;;;;;;27.92;14.10;;;;;;;;;;5056489;28;20481;-68
2022/03/06 04:48:48;;;;;;;29.02;16.67;;;;;;;;;;5056384;28;20036;-69
2022/03/06 04:51:14;;;;;;;36.85;17.65;;;;;;;;;;5056358;28;20025;-68
2022/03/06 04:53:40;;;;;;;37.03;18.27;;;;;;;;;;5056805;28;20021;-68
2022/03/06 04:56:07;;;;;;;40.25;17.67;;;;;;;;;;5056284;28;20048;-68
2022/03/06 04:58:33;;;;;;;37.78;19.30;;;;;;;;;;5056232;28;20021;-69
2022/03/06 05:00:59;;;;;;;38.60;19.90;;;;;;;;;;5056486;28;20410;-69
2022/03/06 05:03:25;;;;;;;42.80;20.83;;;;;;;;;;5056109;28;20017;-68
2022/03/06 05:05:51;;;;;;;43.35;18.60;;;;;;;;;;5055040;28;20436;-69
2022/03/06 05:08:17;;;;;;;42.22;21.10;;;;;;;;;;5054825;28;20074;-69
2022/03/06 05:10:43;;;;;;;43.55;22.60;;;;;;;;;;5054831;28;20029;-70
2022/03/06 05:13:09;;;;;;;42.80;21.55;;;;;;;;;;5054778;28;20023;-68
2022/03/06 05:15:35;;;;;;;44.72;21.85;;;;;;;;;;5054670;28;20029;-70
2022/03/06 05:18:01;;;;;;;47.72;22.80;;;;;;;;;;5054681;28;20025;-68
2022/03/06 05:20:28;;;;;;;53.67;23.77;;;;;;;;;;5054614;28;20025;-67
2022/03/06 05:22:54;;;;;;;52.33;24.40;;;;;;;;;;5054218;28;20607;-68
2022/03/06 05:25:20;;;;;;;55.92;23.88;;;;;;;;;;5054612;28;20055;-68
2022/03/06 05:27:46;;;;;;;47.63;24.65;;;;;;;;;;5054547;28;20478;-68
2022/03/06 05:30:13;;;;;;;56.70;25.85;;;;;;;;;;5054527;28;20036;-69
2022/03/06 05:32:39;;;;;;;49.80;23.92;;;;;;;;;;5054486;28;20021;-69
2022/03/06 05:35:06;;;;;;;52.70;25.75;;;;;;;;;;5054376;28;20025;-68
2022/03/06 05:37:32;;;;;;;48.53;24.20;;;;;;;;;;5036496;28;20021;-69
2022/03/06 05:39:58;;;;;;;53.20;24.80;;;;;;;;;;5054866;28;20031;-67
2022/03/06 05:42:24;;;;;;;49.58;25.02;;;;;;;;;;5054570;28;20092;-69
2022/03/06 05:44:50;;;;;;;49.42;26.23;;;;;;;;;;5054281;28;20100;-68
2022/03/06 05:47:16;;;;;;;55.00;25.00;;;;;;;;;;5054530;28;20029;-69
2022/03/06 05:49:42;;;;;;;75.63;27.55;;;;;;;;;;5054425;28;20388;-69
2022/03/06 05:52:08;;;;;;;53.83;26.02;;;;;;;;;;5054160;28;20029;-69
2022/03/06 05:54:35;;;;;;;55.00;25.33;;;;;;;;;;5053979;28;20061;-68
2022/03/06 05:57:01;;;;;;;53.35;23.33;;;;;;;;;;5054611;28;20029;-68
2022/03/06 05:59:27;;;;;;;51.88;21.75;;;;;;;;;;5054034;28;20083;-68
2022/03/06 06:01:53;;;;;;;51.20;22.40;;;;;;;;;;5054009;28;20021;-67
2022/03/06 06:04:19;;;;;;;51.17;21.37;;;;;;;;;;5002547;28;1470406;-68
2022/03/06 06:06:45;;;;;;;43.67;20.17;;;;;;;;;;5055318;28;20025;-69
2022/03/06 06:09:11;;;;;;;39.25;19.85;;;;;;;;;;5055200;28;20033;-68
2022/03/06 06:11:37;;;;;;;40.33;19.52;;;;;;;;;;5055155;28;20053;-69
2022/03/06 06:14:04;;;;;;;54.88;20.35;;;;;;;;;;5055026;28;20060;-69
2022/03/06 06:16:30;;;;;;;41.25;18.38;;;;;;;;;;5055099;28;20020;-68
2022/03/06 06:18:56;;;;;;;47.67;18.35;;;;;;;;;;5054791;28;20052;-68
2022/03/06 06:21:22;;;;;;;38.13;16.58;;;;;;;;;;5054970;28;20067;-67
2022/03/06 06:23:48;;;;;;;45.30;17.08;;;;;;;;;;5054677;28;20400;-69
2022/03/06 06:26:14;;;;;;;35.20;16.65;;;;;;;;;;5054582;28;20029;-68
2022/03/06 06:28:41;;;;;;;48.75;16.67;;;;;;;;;;5054579;28;20037;-69
2022/03/06 06:31:07;;;;;;;43.28;16.70;;;;;;;;;;5054791;28;20074;-69
2022/03/06 06:33:34;;;;;;;38.17;16.33;;;;;;;;;;5054387;28;20036;-68
2022/03/06 06:36:00;;;;;;;48.45;17.63;;;;;;;;;;5053585;28;20017;-69
2022/03/06 06:38:27;;;;;;;35.83;16.85;;;;;;;;;;5054383;28;20028;-69
2022/03/06 06:40:53;;;;;;;41.80;17.02;;;;;;;;;;5054553;28;20068;-69
2022/03/06 06:43:20;;;;;;;36.47;17.42;;;;;;;;;;5054555;28;20036;-68
2022/03/06 06:45:46;;;;;;;41.42;17.13;;;;;;;;;;5054204;28;20021;-68
2022/03/06 06:48:12;;;;;;;45.47;18.00;;;;;;;;;;5054156;28;20370;-70
2022/03/06 06:50:38;;;;;;;33.35;16.67;;;;;;;;;;5054401;28;20091;-69
2022/03/06 06:53:04;;;;;;;41.10;18.17;;;;;;;;;;5054071;28;20033;-69
2022/03/06 06:55:30;;;;;;;37.58;15.75;;;;;;;;;;5054163;28;20057;-69
2022/03/06 06:57:56;;;;;;;38.53;16.65;;;;;;;;;;5054280;28;20021;-69
2022/03/06 07:00:22;;;;;;;34.55;16.33;;;;;;;;;;5054222;28;20024;-68
2022/03/06 07:02:48;;;;;;;34.28;15.45;;;;;;;;;;5053864;28;20099;-68
2022/03/06 07:05:14;;;;;;;38.38;16.40;;;;;;;;;;5053769;28;20099;-69
2022/03/06 07:07:41;;;;;;;42.35;17.00;;;;;;;;;;5053844;28;20029;-69
2022/03/06 07:10:07;;;;;;;37.33;17.35;;;;;;;;;;5053738;28;20055;-69
2022/03/06 07:12:43;;;;;;;37.72;15.50;;;;;;;;;;5053746;28;20025;-68
2022/03/06 07:15:10;;;;;;;34.97;14.75;;;;;;;;;;5054174;28;20424;-69
2022/03/06 07:17:36;;;;;;;33.17;14.20;;;;;;;;;;5053633;28;20032;-68
2022/03/06 07:20:02;;;;;;;32.30;13.90;;;;;;;;;;5054090;28;20021;-68
2022/03/06 07:22:28;;;;;;;33.75;13.52;;;;;;;;;;5053528;28;20150;-69
2022/03/06 07:24:54;;;;;;;42.42;15.88;;;;;;;;;;5053523;28;20071;-70
2022/03/06 07:27:20;;;;;;;41.58;17.35;;;;;;;;;;5053451;28;20485;-68
2022/03/06 07:29:46;;;;;;;33.17;14.48;;;;;;;;;;5053458;28;20104;-67
2022/03/06 07:32:13;;;;;;;31.00;14.13;;;;;;;;;;5053397;28;20393;-69
2022/03/06 07:34:39;;;;;;;33.47;13.88;;;;;;;;;;5053321;28;20159;-69
2022/03/06 07:37:05;;;;;;;39.70;14.32;;;;;;;;;;5053324;28;20047;-69
2022/03/06 07:39:31;;;;;;;32.10;13.38;;;;;;;;;;5053294;28;20025;-68
2022/03/06 07:41:57;;;;;;;33.80;13.80;;;;;;;;;;5053497;28;20032;-69
2022/03/06 07:44:23;;;;;;;33.47;14.45;;;;;;;;;;5053224;28;20527;-69
2022/03/06 07:46:49;;;;;;;29.88;13.45;;;;;;;;;;5053145;28;20075;-68
2022/03/06 07:49:15;;;;;;;30.27;13.13;;;;;;;;;;5053201;28;20079;-70
2022/03/06 07:51:41;;;;;;;36.78;13.95;;;;;;;;;;5053153;28;20492;-68
2022/03/06 07:54:13;;;;;;;32.35;14.43;;;;;;;;;;5053044;28;20025;-69
2022/03/06 07:56:39;;;;;;;33.55;14.55;;;;;;;;;;5035003;28;20025;-69
2022/03/06 07:59:05;;;;;;;34.55;14.48;;;;;;;;;;5053048;28;20025;-67
2022/03/06 08:01:31;;;;;;;28.02;14.10;;;;;;;;;;5053043;28;20035;-70
2022/03/06 08:03:57;;;;;;;33.20;14.55;;;;;;;;;;5035165;28;20025;-70
2022/03/06 08:06:23;;;;;;;37.88;13.52;;;;;;;;;;5052572;28;20421;-67
2022/03/06 08:08:49;;;;;;;36.38;15.60;;;;;;;;;;5053068;28;20094;-68
2022/03/06 08:11:15;;;;;;;29.05;12.70;;;;;;;;;;5053041;28;20036;-68
2022/03/06 08:13:41;;;;;;;33.78;13.57;;;;;;;;;;5052987;28;20106;-68
2022/03/06 08:16:08;;;;;;;30.48;13.75;;;;;;;;;;5053259;28;20021;-68
2022/03/06 08:18:35;;;;;;;29.17;13.30;;;;;;;;;;5052926;28;20100;-68
2022/03/06 08:21:01;;;;;;;33.97;16.05;;;;;;;;;;5052897;28;20025;-68
2022/03/06 08:23:27;;;;;;;31.20;14.15;;;;;;;;;;5052869;28;20508;-69
2022/03/06 08:25:54;;;;;;;35.08;15.07;;;;;;;;;;5052831;28;20025;-68
2022/03/06 08:28:20;;;;;;;33.50;13.98;;;;;;;;;;5052833;28;20021;-68
2022/03/06 08:30:46;;;;;;;32.28;14.80;;;;;;;;;;5053361;28;20108;-68
2022/03/06 08:33:12;;;;;;;28.83;13.82;;;;;;;;;;5053343;28;20048;-69
2022/03/06 08:35:38;;;;;;;33.83;15.25;;;;;;;;;;5053265;28;20025;-68
2022/03/06 08:38:04;;;;;;;34.35;15.13;;;;;;;;;;5052710;28;20070;-69
2022/03/06 08:40:31;;;;;;;27.63;14.52;;;;;;;;;;5052519;28;20108;-70
2022/03/06 08:42:57;;;;;;;30.50;14.35;;;;;;;;;;5052944;28;20017;-68
2022/03/06 08:45:23;;;;;;;44.15;15.95;;;;;;;;;;5052952;28;20052;-69
2022/03/06 08:47:49;;;;;;;26.70;14.07;;;;;;;;;;5052931;28;20025;-68
2022/03/06 08:50:15;;;;;;;29.05;16.00;;;;;;;;;;5052898;28;20107;-69
2022/03/06 08:52:41;;;;;;;31.20;14.05;;;;;;;;;;5052498;28;20025;-68
2022/03/06 08:55:09;;;;;;;30.20;14.70;;;;;;;;;;5052337;28;20033;-69
2022/03/06 08:57:35;;;;;;;30.33;14.63;;;7.00;99.90;;;;;;5053013;28;20013;-68
2022/03/06 09:00:01;;;;;;;27.63;13.30;;;;;;;;;;5056526;28;20432;-68
2022/03/06 09:02:27;;;;;;;32.67;14.90;;;;;;;;;;5038297;28;20024;-68
2022/03/06 09:04:53;;;;;;;30.10;14.93;;;;;;;;;;5056301;28;20041;-67
2022/03/06 09:07:19;;;;;;;29.88;15.90;;;;;;;;;;5056079;28;20021;-69
2022/03/06 09:09:45;;;;;;;33.83;15.02;;;;;;;;;;5056066;28;20025;-67
2022/03/06 09:12:11;;;;;;;26.50;13.43;;;;;;;;;;5056036;28;20455;-68
2022/03/06 09:14:37;;;;;;;27.38;14.65;;;;;;;;;;5056441;28;20531;-69
2022/03/06 09:17:03;;;;;;;33.88;14.82;;;8.30;99.90;;;;;;5055907;28;20025;-68
2022/03/06 09:19:29;;;;;;;29.73;14.38;;;;;;;;;;5056154;28;20025;-69
2022/03/06 09:21:55;;;;;;;33.88;15.05;;;;;;;;;;5056066;28;20017;-68
2022/03/06 09:24:21;;;;;;;28.95;13.57;;;;;;;;;;5056107;28;20043;-68
2022/03/06 09:26:47;;;;;;;29.65;14.25;;;;;;;;;;5056041;28;20100;-69
2022/03/06 09:29:13;;;;;;;28.13;14.05;;;;;;;;;;5056002;28;20029;-69
2022/03/06 09:31:43;;;;;;;33.03;14.77;;;;;;;;;;5055605;28;20059;-69
2022/03/06 09:34:09;;;;;;;27.17;13.68;;;;;;;;;;5055574;28;20052;-69
2022/03/06 09:36:36;;;;;;;28.27;13.23;;;;;;;;;;5055536;28;20059;-68
2022/03/06 09:39:03;;;;;;;27.60;13.13;;;;;;;;;;5055499;28;20067;-68
2022/03/06 09:41:29;;;;;;;29.30;12.93;;;;;;;;;;5055479;28;20024;-69
2022/03/06 09:43:56;;;;;;;30.42;14.30;;;;;;;;;;5055705;28;20032;-68
2022/03/06 09:46:23;;;;;;;27.20;15.02;;;;;;;;;;5055636;28;20078;-69
2022/03/06 09:48:50;;;;;;;28.45;14.23;;;;;;;;;;5055572;28;20086;-68
2022/03/06 09:51:16;;;;;;;30.65;14.20;;;;;;;;;;5037334;28;20397;-69
2022/03/06 09:53:42;;;;;;;27.08;12.65;;;;;;;;;;5055069;28;20025;-67
2022/03/06 09:56:08;;;;;;;26.83;13.70;;;;;;;;;;5055141;28;20017;-68
2022/03/06 09:58:34;;;;;;;26.48;12.95;;;;;;;;;;5055072;28;20032;-69
2022/03/06 10:01:00;;;;;;;27.95;12.60;;;;;;;;;;5055403;28;20385;-69
2022/03/06 10:03:26;;;;;;;26.92;13.70;;;8.60;99.90;;;;;;5055361;28;20028;-68
2022/03/06 10:05:52;;;;;;;24.73;13.25;;;;;;;;;;5054810;28;20114;-68
2022/03/06 10:08:25;;;;;;;30.23;13.50;;;;;;;;;;5055220;28;20108;-68
2022/03/06 10:11:03;;;;;;;25.38;13.55;;;10.00;99.90;;;;;;5053942;28;20100;-69
2022/03/06 10:13:39;;;;;;;26.08;13.27;;;;;;;;;;5055132;28;20078;-67
2022/03/06 10:16:14;;;;;;;28.10;13.15;;;10.50;99.90;;;;;;5055403;28;20027;-70
2022/03/06 10:18:40;;;;;;;26.38;12.88;;;;;;;;;;5055127;28;20025;-68
2022/03/06 10:21:08;;;;;;;22.40;12.73;;;;;;;;;;5055327;28;20028;-68
2022/03/06 10:23:35;;;;;;;21.58;12.68;;;;;;;;;;5054726;28;20028;-70
2022/03/06 10:26:12;;;;;;;24.77;13.20;;;;;;;;;;5054689;28;20028;-69
2022/03/06 10:28:47;;;;;;;24.98;13.30;;;;;;;;;;5054651;28;20026;-69
2022/03/06 10:31:14;;;;;;;28.23;12.90;;;;;;;;;;5054898;28;20384;-70
2022/03/06 10:33:40;;;;;;;26.42;12.63;;;;;;;;;;5054454;28;20023;-69
2022/03/06 10:36:09;;;;;;;22.33;13.00;;;;;;;;;;5054437;28;20055;-68
2022/03/06 10:38:36;;;;;;;23.40;12.43;;;;;;;;;;5054379;28;20029;-69
2022/03/06 10:41:17;;;;;;;27.60;12.98;;;;;;;;;;5054638;28;20028;-68
2022/03/06 10:43:43;;;;;;;23.20;12.85;;;;;;;;;;5054336;28;20389;-68
2022/03/06 10:46:09;;;;;;;24.02;13.90;;;;;;;;;;5054260;28;20025;-68
2022/03/06 10:48:36;;;;;;;23.08;12.75;;;;;;;;;;5054464;28;20021;-69
2022/03/06 10:51:03;;;;;;;23.27;12.63;;;;;;;;;;5054465;28;20017;-71
2022/03/06 10:53:29;;;;;;;24.55;13.48;;;11.70;99.90;;;;;;5054615;28;20025;-69
2022/03/06 10:56:04;;;;;;;26.63;12.40;;;11.60;99.90;;;;;;5054029;28;20025;-68
2022/03/06 10:58:31;;;;;;;23.27;13.02;;;;;;;;;;5054589;28;20377;-71
2022/03/06 11:00:57;;;;;;;24.40;13.85;;;11.50;99.90;;;;;;5054280;28;20025;-69
2022/03/06 11:03:25;;;;;;;25.65;14.45;;;;;;;;;;5053979;28;20021;-70
2022/03/06 11:05:52;;;;;;;24.92;13.98;;;12.00;99.90;;;;;;5053791;28;20052;-69
2022/03/06 11:08:18;;;;;;;23.48;13.05;;;;;;;;;;5053864;28;20497;-67
2022/03/06 11:10:45;;;;;;;25.73;13.68;;;;;;;;;;5053741;28;20553;-68
2022/03/06 11:13:14;;;;;;;24.50;13.65;;;;;;;;;;5053766;28;20048;-69
2022/03/06 11:15:41;;;;;;;23.48;12.73;;;12.30;99.90;;;;;;5053687;28;20033;-69
2022/03/06 11:18:07;;;;;;;24.98;14.23;;;12.40;99.90;;;;;;5053928;28;20025;-68
2022/03/06 11:20:34;;;;;;;21.35;11.93;;;12.40;99.90;;;;;;5053387;28;20017;-68
2022/03/06 11:23:41;;;;;;;25.05;14.65;;;12.40;99.90;;;;;;5053635;28;20547;-69
2022/03/06 11:26:13;;;;;;;26.52;14.43;;;12.70;99.90;;;;;;5050823;28;20040;-69
2022/03/06 11:28:44;;;;;;;27.63;14.68;;;;;;;;;;5053459;28;20027;-68
2022/03/06 11:31:13;;;;;;;26.45;14.60;;;;;;;;;;5053785;28;20450;-69
2022/03/06 11:33:43;;;;;;;25.20;14.23;;;;;;;;;;5053497;28;20049;-70
2022/03/06 11:36:19;;;;;;;26.63;14.90;;;12.80;99.90;;;;;;5053342;28;20020;-71
2022/03/06 11:38:48;;;;;;;26.02;14.13;;;11.80;99.90;;;;;;5053857;28;20252;-72
2022/03/06 11:41:14;;;;;;;28.27;13.90;;;11.50;99.90;;;;;;5053863;28;20023;-72
2022/03/06 11:43:46;;;;;;;22.80;13.93;;;11.80;99.90;;;;;;5053593;28;20021;-73
2022/03/06 11:46:17;;;;;;;22.38;12.95;;;12.00;99.90;;;;;;5053591;28;20066;-72
2022/03/06 11:48:43;;;;;;;23.75;14.23;;;12.40;99.90;;;;;;5053840;28;20070;-72
2022/03/06 11:51:21;;;;;;;26.25;14.85;;;12.60;99.90;;;;;;5053288;28;20498;-71
2022/03/06 11:53:54;;;;;;;26.17;15.25;;;12.30;99.90;;;;;;5053511;28;20029;-72
2022/03/06 11:56:32;;;;;;;30.33;15.43;;;11.60;99.90;;;;;;5053206;28;20017;-72
2022/03/06 11:59:16;;;;;;;27.42;16.67;;;11.20;99.90;;;;;;5053059;28;20032;-71
2022/03/06 12:01:42;;;;;;;27.83;16.95;;;;;;;;;;5053112;28;20052;-73
2022/03/06 12:04:15;;;;;;;28.45;16.50;;;;;;;;;;5052898;28;20090;-73
2022/03/06 12:06:47;;;;;;;28.50;16.85;;;;;;;;;;5053447;28;20039;-71
2022/03/06 12:09:15;;;;;;;33.40;19.20;;;;;;;;;;5034985;28;20025;-73
2022/03/06 12:11:41;;;;;;;36.33;20.88;;;11.10;99.90;;;;;;5053215;28;20482;-70
2022/03/06 12:14:16;;;;;;;32.05;20.23;;;11.30;99.90;;;;;;5035042;28;20052;-69
2022/03/06 12:17:00;;;;;;;34.03;19.48;;;11.30;99.90;;;;;;5053743;28;20025;-69
2022/03/06 12:19:27;;;;;;;34.40;20.55;;;;;;;;;;5053333;28;20021;-71
2022/03/06 12:22:13;;;;;;;37.25;22.17;;;11.20;99.90;;;;;;5053176;28;20128;-70
2022/03/06 12:24:41;;;;;;;37.97;22.70;;;11.10;99.90;;;;;;5035902;28;20029;-69
2022/03/06 12:27:17;;;;;;;40.92;25.08;;;11.00;99.90;;;;;;5053066;28;20118;-71
2022/03/06 12:29:46;;;;;;;43.65;24.75;;;11.10;99.90;;;;;;5053022;28;20147;-70
2022/03/06 12:32:27;;;;;;;41.53;24.35;;;10.80;99.90;;;;;;5052736;28;20040;-69
2022/03/06 12:34:58;;;;;;;41.00;24.52;;;10.60;99.90;;;;;;5057192;28;20583;-70
2022/03/06 12:37:28;;;;;;;42.78;25.83;;;10.40;99.90;;;;;;5056643;28;20031;-68
2022/03/06 12:39:55;;;;;;;48.60;25.17;;;10.10;99.90;;;;;;5057016;28;20017;-69
2022/03/06 12:42:31;;;;;;;46.00;26.30;;;10.00;99.90;;;;;;5056568;28;20037;-70
2022/03/06 12:44:59;;;;;;;44.75;25.63;;;10.20;99.90;;;;;;5056912;28;20381;-68
2022/03/06 12:47:26;;;;;;;45.35;27.13;;;10.30;99.90;;;;;;5056494;28;20478;-69
2022/03/06 12:49:53;;;;;;;44.28;25.50;;;10.40;99.90;;;;;;5056795;28;20021;-69
2022/03/06 12:52:25;;;;;;;44.67;26.15;;;10.50;99.90;;;;;;5056438;28;20117;-69
2022/03/06 12:54:53;;;;;;;43.05;26.48;;;10.60;99.90;;;;;;5056541;28;20036;-69
2022/03/06 12:57:19;;;;;;;43.13;26.05;;;10.50;99.90;;;;;;5056600;28;20025;-69
2022/03/06 12:59:49;;;;;;;46.25;27.35;;;10.50;99.90;;;;;;5056246;28;20022;-69
2022/03/06 13:02:19;;;;;;;47.00;28.08;;;10.40;99.90;;;;;;5056565;28;20409;-69
2022/03/06 13:04:49;;;;;;;44.33;25.88;;;10.30;99.90;;;;;;5056060;28;20575;-71
2022/03/06 13:07:16;;;;;;;46.00;26.48;;;10.20;99.90;;;;;;5056402;28;20543;-68
2022/03/06 13:09:42;;;;;;;44.50;25.52;;;10.10;99.90;;;;;;5056072;28;20385;-67
2022/03/06 13:12:08;;;;;;;48.42;27.50;;;10.20;99.90;;;;;;5056293;28;20029;-68
2022/03/06 13:14:39;;;;;;;47.78;27.52;;;10.20;99.90;;;;;;5038009;28;20040;-69
2022/03/06 13:17:10;;;;;;;44.88;26.60;;;10.50;99.90;;;;;;5056516;28;20021;-68
2022/03/06 13:19:40;;;;;;;41.58;25.23;;;10.70;99.90;;;;;;5055962;28;20024;-69
2022/03/06 13:22:10;;;;;;;45.53;28.45;;;;;;;;;;5056123;28;20021;-69
2022/03/06 13:24:51;;;;;;;43.55;25.73;;;10.80;99.90;;;;;;5056425;28;20052;-69
2022/03/06 13:27:25;;;;;;;43.60;27.52;;;10.90;99.90;;;;;;5056348;28;20058;-69
2022/03/06 13:30:14;;;;;;;46.25;27.63;;;11.20;99.90;;;;;;5055744;28;20029;-68
2022/03/06 13:32:52;;;;;;;44.38;27.30;;;11.50;99.90;;;;;;5056004;28;20036;-68
2022/03/06 13:35:28;;;;;;;43.53;27.67;;;11.90;99.90;;;;;;5055568;28;20105;-69
2022/03/06 13:37:59;;;;;;;46.75;28.95;;;12.10;99.90;;;;;;5055622;28;20021;-68
2022/03/06 13:40:27;;;;;;;45.33;28.52;;;12.30;99.90;;;;;;5055728;28;20021;-69
2022/03/06 13:42:53;;;;;;;46.92;28.70;;;12.20;99.90;;;;;;5055517;28;20025;-69
2022/03/06 13:45:19;;;;;;;44.70;28.80;;;12.10;99.90;;;;;;5055425;28;20083;-69
2022/03/06 13:48:00;;;;;;;46.47;28.33;;;12.00;99.90;;;;;;5055649;28;20071;-69
2022/03/06 13:50:41;;;;;;;46.53;29.63;;;11.90;99.90;;;;;;5055937;28;20021;-70
2022/03/06 13:53:12;;;;;;;51.08;30.55;;;11.80;99.90;;;;;;5055614;28;20092;-68
2022/03/06 13:56:00;;;;;;;45.17;28.33;;;12.00;99.90;;;;;;5055120;28;20519;-69
2022/03/06 13:58:38;;;;;;;45.63;27.45;;;12.00;99.90;;;;;;5037275;28;20432;-68
2022/03/06 14:01:04;;;;;;;46.85;28.33;;;12.20;99.90;;;;;;5055272;28;20025;-69